createdAt,value
2024-01-06T00:00:08.948Z,10
2024-01-06T00:05:08.947Z,10
2024-01-06T00:10:09.462Z,10
2024-01-06T00:15:08.964Z,11
2024-01-06T00:20:09.226Z,10
2024-01-06T00:40:09.922Z,10
2024-01-06T00:45:09.000Z,9
2024-01-06T00:50:09.554Z,9
2024-01-06T00:55:09.542Z,9
2024-01-06T01:00:09.114Z,9
2024-01-06T01:05:09.151Z,9
2024-01-06T01:25:09.889Z,9
2024-01-06T01:30:09.809Z,8
2024-01-06T01:35:09.081Z,9
2024-01-06T01:40:09.657Z,8
2024-01-06T01:45:10.578Z,9
2024-01-06T01:50:09.120Z,4
2024-01-06T01:55:09.104Z,4
2024-01-06T02:00:09.176Z,3
2024-01-06T02:05:09.140Z,3
2024-01-06T02:20:09.678Z,4
2024-01-06T02:25:09.656Z,4
2024-01-06T02:40:10.010Z,4
2024-01-06T02:45:09.210Z,5
2024-01-06T03:00:10.069Z,5
2024-01-06T03:05:09.272Z,5
2024-01-06T03:10:09.752Z,5
2024-01-06T03:15:09.266Z,4
2024-01-06T03:20:09.241Z,4
2024-01-06T03:25:09.834Z,4
2024-01-06T03:30:09.878Z,4
2024-01-06T03:55:10.139Z,4
2024-01-06T04:00:09.404Z,3
2024-01-06T04:05:09.416Z,3
2024-01-06T04:10:09.375Z,3
2024-01-06T04:25:10.193Z,3
2024-01-06T04:30:09.475Z,3
2024-01-06T04:35:09.947Z,2
2024-01-06T04:55:10.234Z,2
2024-01-06T05:00:09.461Z,3
2024-01-06T05:05:10.048Z,3
2024-01-06T05:10:09.450Z,3
2024-01-06T05:15:09.998Z,3
2024-01-06T05:20:09.483Z,3
2024-01-06T05:25:09.502Z,3
2024-01-06T05:35:09.795Z,4
2024-01-06T05:40:09.527Z,4
2024-01-06T05:45:10.123Z,4
2024-01-06T05:50:09.522Z,4
2024-01-06T05:55:09.617Z,5
2024-01-06T06:00:09.640Z,5
2024-01-06T06:05:10.187Z,3
2024-01-06T06:10:09.661Z,4
2024-01-06T06:20:09.618Z,4
2024-01-06T06:25:10.132Z,5
2024-01-06T06:30:09.669Z,5
2024-01-06T06:35:09.735Z,6
2024-01-06T06:55:10.464Z,6
2024-01-06T07:00:09.697Z,5
2024-01-06T07:05:10.210Z,5
2024-01-06T07:10:09.707Z,6
2024-01-06T07:15:09.814Z,4
2024-01-06T07:20:09.697Z,5
2024-01-06T07:25:09.709Z,4
2024-01-06T07:30:10.276Z,4
2024-01-06T07:35:09.780Z,4
2024-01-06T07:40:09.748Z,5
2024-01-06T07:45:09.748Z,5
2024-01-06T07:50:10.305Z,5
2024-01-06T07:55:09.732Z,5
2024-01-06T08:10:10.818Z,5
2024-01-06T08:15:10.441Z,10
2024-01-06T08:20:09.863Z,10
2024-01-06T08:25:09.860Z,13
2024-01-06T08:30:10.416Z,8
2024-01-06T08:35:10.338Z,7
2024-01-06T08:40:09.867Z,5
2024-01-06T08:45:09.855Z,6
2024-01-06T08:55:10.399Z,6
2024-01-06T09:00:09.906Z,6
2024-01-06T09:05:09.910Z,4
2024-01-06T09:20:10.740Z,4
2024-01-06T09:25:09.898Z,8
2024-01-06T09:30:09.965Z,8
2024-01-06T09:40:09.956Z,7
2024-01-06T09:45:10.178Z,11
2024-01-06T09:50:10.567Z,10
2024-01-06T09:55:10.509Z,6
2024-01-06T10:00:09.987Z,5
2024-01-06T10:05:10.590Z,5
2024-01-06T10:10:10.600Z,2
2024-01-06T10:15:10.509Z,3
2024-01-06T10:20:10.082Z,2
2024-01-06T10:25:10.536Z,2
2024-01-06T10:40:10.887Z,2
2024-01-06T10:45:10.043Z,2
2024-01-06T11:00:10.913Z,2
2024-01-06T11:05:10.130Z,2
2024-01-06T11:10:10.242Z,3
2024-01-06T11:20:10.215Z,2
2024-01-06T11:25:10.347Z,2
2024-01-06T11:45:11.098Z,2
2024-01-06T11:50:10.155Z,2
2024-01-06T11:55:10.212Z,2
2024-01-06T12:00:10.726Z,2
2024-01-06T12:05:10.360Z,2
2024-01-06T12:10:10.230Z,2
2024-01-06T12:15:10.232Z,2
2024-01-06T12:20:10.785Z,2
2024-01-06T12:25:10.218Z,2
2024-01-06T12:30:10.812Z,3
2024-01-06T12:45:11.090Z,3
2024-01-06T12:50:10.326Z,2
2024-01-06T13:05:11.130Z,2
2024-01-06T13:10:10.846Z,2
2024-01-06T13:15:10.976Z,2
2024-01-06T13:20:10.303Z,1
2024-01-06T13:25:10.990Z,1
2024-01-06T13:30:10.402Z,1
2024-01-06T13:35:10.367Z,2
2024-01-06T13:40:10.544Z,1
2024-01-06T13:45:10.883Z,1
2024-01-06T13:55:10.552Z,2
2024-01-06T14:10:11.230Z,2
2024-01-06T14:15:10.416Z,2
2024-01-06T14:30:11.408Z,2
2024-01-06T14:35:10.489Z,2
2024-01-06T14:40:10.510Z,2
2024-01-06T15:00:11.320Z,2
2024-01-06T15:05:10.615Z,2
2024-01-06T15:10:11.226Z,2
2024-01-06T15:15:10.578Z,3
2024-01-06T15:20:10.536Z,3
2024-01-06T15:25:10.702Z,2
2024-01-06T15:30:11.139Z,2
2024-01-06T15:35:10.593Z,2
2024-01-06T15:40:10.853Z,3
2024-01-06T15:45:11.117Z,2
2024-01-06T15:50:10.641Z,2
2024-01-06T15:55:10.713Z,2
2024-01-06T16:00:10.647Z,2
2024-01-06T16:05:11.053Z,3
2024-01-06T16:25:11.586Z,3
2024-01-06T16:30:11.553Z,3
2024-01-06T16:35:10.803Z,3
2024-01-06T16:40:10.844Z,3
2024-01-06T16:45:10.796Z,3
2024-01-06T17:00:11.648Z,3
2024-01-06T17:05:11.172Z,3
2024-01-06T17:10:11.413Z,2
2024-01-06T17:15:11.449Z,2
2024-01-06T17:20:10.749Z,3
2024-01-06T17:25:12.819Z,3
2024-01-06T17:30:11.429Z,3
2024-01-06T17:35:10.845Z,4
2024-01-06T17:40:10.819Z,4
2024-01-06T17:45:10.834Z,4
2024-01-06T17:50:11.455Z,4
2024-01-06T17:55:11.378Z,4
2024-01-06T18:00:10.842Z,4
2024-01-06T18:05:11.547Z,4
2024-01-06T18:10:11.094Z,4
2024-01-06T18:30:12.178Z,4
2024-01-06T18:35:11.166Z,3
2024-01-06T18:40:10.939Z,3
2024-01-06T18:45:11.225Z,4
2024-01-06T18:50:10.993Z,3
2024-01-06T19:10:11.949Z,3
2024-01-06T19:15:11.599Z,4
2024-01-06T19:20:11.478Z,3
2024-01-06T19:25:11.012Z,3
2024-01-06T19:30:11.047Z,2
2024-01-06T19:45:11.843Z,2
2024-01-06T19:50:11.018Z,3
2024-01-06T19:55:11.720Z,3
2024-01-06T20:00:11.558Z,3
2024-01-06T20:05:11.058Z,3
2024-01-06T20:10:11.121Z,3
2024-01-06T20:15:11.969Z,3
2024-01-06T20:30:12.084Z,3
2024-01-06T20:35:11.329Z,3
2024-01-06T20:40:11.614Z,2
2024-01-06T20:45:11.615Z,3
2024-01-06T20:50:11.323Z,3
2024-01-06T20:55:11.165Z,4
2024-01-06T21:15:12.275Z,4
2024-01-06T21:20:12.417Z,8
2024-01-06T21:25:11.703Z,6
2024-01-06T21:30:11.876Z,6
2024-01-06T21:35:11.248Z,7
2024-01-06T21:40:11.402Z,6
2024-01-06T21:45:11.354Z,6
2024-01-06T21:50:11.279Z,7
2024-01-06T21:55:12.046Z,7
2024-01-06T22:00:11.999Z,8
2024-01-06T22:05:11.790Z,6
2024-01-06T22:10:11.841Z,6
2024-01-06T22:15:11.389Z,7
2024-01-06T22:20:11.324Z,7
2024-01-06T22:40:12.224Z,7
2024-01-06T22:45:11.571Z,7
2024-01-06T22:50:11.839Z,8
2024-01-06T22:55:11.881Z,7
2024-01-06T23:00:11.856Z,8
2024-01-06T23:15:12.223Z,8
2024-01-06T23:20:11.379Z,6
2024-01-06T23:25:11.415Z,6
2024-01-06T23:45:12.390Z,6
2024-01-06T23:50:11.464Z,6
2024-01-06T23:55:17.494Z,7
